Main page
METAR-TAF:

METAR-TAF

Airports :

Wharton Regional Airport

Wharton, Texas, United States

latitude: 29-15-15N, longitude: 096-09-15W, elevation: 102 ft

Current weather observation

The report was made 16 minutes ago, at 22:15 UTC
Wind 15 mph from the South with gusts up to 22 mph
Temperature 77°F
Humidity 69%
Pressure 29.84 in. Hg
Visibility: 10 miles
Broken clouds at a height of 2200 ft
Broken clouds at a height of 3400 ft
Broken clouds at a height of 4200 ft

METAR: KARM 172215Z AUTO 18013G19KT 10SM BKN022 BKN034 BKN042 25/19 A2984 RMK AO2 T02500185

Time: 16:31 (22:31 UTC)


TAF: missing

Weather observations and forecasts of more than 4000 airports (METAR and TAF reports).

The available stations are represented by yellow and red dots on the map.

Hover mouse over dot to see the name of the station.

Then click to see weather observations and forecasts.

To change the map : click on the green buttons with a black cross to zoom in, on the green button with a dash to zoom out, or on the green arrows for adjacent maps.


METAR-TAF: